createdAt,value
2022-08-19T00:02:15.129Z,35.79
2022-08-19T00:04:42.512Z,35.75
2022-08-19T00:07:10.295Z,35.87
2022-08-19T00:09:37.661Z,35.83
2022-08-19T00:12:05.135Z,35.87
2022-08-19T00:14:32.969Z,35.71
2022-08-19T00:17:01.154Z,35.65
2022-08-19T00:19:28.505Z,35.58
2022-08-19T00:21:57.377Z,35.73
2022-08-19T00:24:24.825Z,35.52
2022-08-19T00:26:52.628Z,35.55
2022-08-19T00:29:21.145Z,35.73
2022-08-19T00:31:50.726Z,35.71
2022-08-19T00:34:18.303Z,35.73
2022-08-19T00:36:46.259Z,35.69
2022-08-19T00:39:14.189Z,35.79
2022-08-19T00:41:41.551Z,35.84
2022-08-19T00:44:11.983Z,35.66
2022-08-19T00:46:40.729Z,35.66
2022-08-19T00:49:10.841Z,35.58
2022-08-19T00:51:38.407Z,35.55
2022-08-19T00:54:06.025Z,35.56
2022-08-19T00:56:33.745Z,35.40
2022-08-19T00:59:02.805Z,35.38
2022-08-19T01:01:30.124Z,35.33
2022-08-19T01:03:58.719Z,35.33
2022-08-19T01:06:26.930Z,35.37
2022-08-19T01:08:55.634Z,35.43
2022-08-19T01:11:22.987Z,35.28
2022-08-19T01:13:51.360Z,35.25
2022-08-19T01:16:20.362Z,35.26
2022-08-19T01:18:47.956Z,35.35
2022-08-19T01:21:35.763Z,35.30
2022-08-19T01:24:03.262Z,35.31
2022-08-19T01:26:31.239Z,35.18
2022-08-19T01:29:01.064Z,35.27
2022-08-19T01:31:32.654Z,35.20
2022-08-19T01:34:01.904Z,35.38
2022-08-19T01:36:29.197Z,35.24
2022-08-19T01:38:57.187Z,35.47
2022-08-19T01:41:24.827Z,35.25
2022-08-19T01:44:13.197Z,35.16
2022-08-19T01:46:40.485Z,35.07
2022-08-19T01:49:09.031Z,35.01
2022-08-19T01:51:39.809Z,35.07
2022-08-19T01:54:09.157Z,34.99
2022-08-19T01:56:36.414Z,34.98
2022-08-19T01:59:05.597Z,34.94
2022-08-19T02:01:33.555Z,34.83
2022-08-19T02:04:01.774Z,34.86
2022-08-19T02:06:29.664Z,35.01
2022-08-19T02:08:57.595Z,34.80
2022-08-19T02:11:27.575Z,34.85
2022-08-19T02:13:55.427Z,34.85
2022-08-19T02:16:22.760Z,34.76
2022-08-19T02:18:51.002Z,34.87
2022-08-19T02:21:19.061Z,34.80
2022-08-19T02:23:47.136Z,34.81
2022-08-19T02:26:14.548Z,34.88
2022-08-19T02:28:43.253Z,34.80
2022-08-19T02:31:15.784Z,34.61
2022-08-19T02:33:43.321Z,34.66
2022-08-19T02:36:11.892Z,34.69
2022-08-19T02:38:40.781Z,34.85
2022-08-19T02:41:12.988Z,34.74
2022-08-19T02:43:44.403Z,34.69
2022-08-19T02:46:30.391Z,34.72
2022-08-19T02:48:59.512Z,34.76
2022-08-19T02:51:30.868Z,34.65
2022-08-19T02:53:58.889Z,34.60
2022-08-19T02:56:28.109Z,34.58
2022-08-19T02:58:56.166Z,34.55
2022-08-19T03:01:24.799Z,34.56
2022-08-19T03:03:52.390Z,34.60
2022-08-19T03:06:20.355Z,34.59
2022-08-19T03:08:48.470Z,34.60
2022-08-19T03:11:35.934Z,34.61
2022-08-19T03:14:04.721Z,34.61
2022-08-19T03:16:36.337Z,34.55
2022-08-19T03:19:03.783Z,34.64
2022-08-19T03:21:32.604Z,34.59
2022-08-19T03:24:01.137Z,34.48
2022-08-19T03:26:28.960Z,34.46
2022-08-19T03:28:58.166Z,34.51
2022-08-19T03:31:45.077Z,34.51
2022-08-19T03:34:18.384Z,34.63
2022-08-19T03:36:46.758Z,34.45
2022-08-19T03:39:14.507Z,34.62
2022-08-19T03:41:44.593Z,34.63
2022-08-19T03:44:18.118Z,34.68
2022-08-19T03:46:46.947Z,34.49
2022-08-19T03:49:14.734Z,34.64
2022-08-19T03:51:43.133Z,34.42
2022-08-19T03:54:11.805Z,34.40
2022-08-19T03:56:40.635Z,34.64
2022-08-19T03:59:09.411Z,34.59
2022-08-19T04:01:36.937Z,34.60
2022-08-19T04:04:04.721Z,34.56
2022-08-19T04:06:33.863Z,34.55
2022-08-19T04:09:02.499Z,34.84
2022-08-19T04:11:43.112Z,34.68
2022-08-19T04:14:13.332Z,34.70
2022-08-19T04:16:40.777Z,34.92
2022-08-19T04:19:08.210Z,34.94
2022-08-19T04:21:35.617Z,35.00
2022-08-19T04:24:04.186Z,35.00
2022-08-19T04:26:33.220Z,34.96
2022-08-19T04:29:09.288Z,34.96
2022-08-19T04:31:39.694Z,34.86
2022-08-19T04:34:08.788Z,34.92
2022-08-19T04:36:37.136Z,35.02
2022-08-19T04:39:09.791Z,35.06
2022-08-19T04:41:55.957Z,35.03
2022-08-19T04:44:23.444Z,35.02
2022-08-19T04:46:51.992Z,34.97
2022-08-19T04:49:23.412Z,34.82
2022-08-19T04:51:51.588Z,35.07
2022-08-19T04:54:37.120Z,35.14
2022-08-19T04:57:08.122Z,35.20
2022-08-19T04:59:36.481Z,35.16
2022-08-19T05:02:04.115Z,35.28
2022-08-19T05:04:33.144Z,35.32
2022-08-19T05:07:02.293Z,35.30
2022-08-19T05:09:42.150Z,35.38
2022-08-19T05:12:18.215Z,35.59
2022-08-19T05:14:50.454Z,35.75
2022-08-19T05:17:38.066Z,35.62
2022-08-19T05:20:24.753Z,35.58
2022-08-19T05:22:52.191Z,35.60
2022-08-19T05:25:20.861Z,35.81
2022-08-19T05:27:48.729Z,35.77
2022-08-19T05:30:16.841Z,35.68
2022-08-19T05:32:44.134Z,35.68
2022-08-19T05:35:12.514Z,35.71
2022-08-19T05:37:41.632Z,35.82
2022-08-19T05:40:09.654Z,35.75
2022-08-19T05:42:36.983Z,35.73
2022-08-19T05:45:05.556Z,35.44
2022-08-19T05:47:33.301Z,35.17
2022-08-19T05:50:05.009Z,35.18
2022-08-19T05:52:33.551Z,35.54
2022-08-19T05:55:00.873Z,35.62
2022-08-19T05:57:30.021Z,35.90
2022-08-19T05:59:59.124Z,35.91
2022-08-19T06:02:27.169Z,36.02
2022-08-19T06:04:54.487Z,36.28
2022-08-19T06:07:22.108Z,36.37
2022-08-19T06:09:59.657Z,36.29
2022-08-19T06:12:35.728Z,36.49
2022-08-19T06:15:05.275Z,36.37
2022-08-19T06:17:33.073Z,36.40
2022-08-19T06:20:00.616Z,36.33
2022-08-19T06:22:28.118Z,36.58
2022-08-19T06:24:56.316Z,36.51
2022-08-19T06:27:23.822Z,36.81
2022-08-19T06:29:51.138Z,37.33
2022-08-19T06:32:19.862Z,37.03
2022-08-19T06:34:47.545Z,36.93
2022-08-19T06:37:15.469Z,37.05
2022-08-19T06:39:44.175Z,36.77
2022-08-19T06:42:14.418Z,37.31
2022-08-19T06:44:43.824Z,37.57
2022-08-19T06:47:23.912Z,36.96
2022-08-19T06:49:54.806Z,37.44
2022-08-19T06:52:28.377Z,37.95
2022-08-19T06:54:59.727Z,37.67
2022-08-19T06:57:27.499Z,37.65
2022-08-19T06:59:56.050Z,37.61
2022-08-19T07:02:27.338Z,37.39
2022-08-19T07:04:54.861Z,37.42
2022-08-19T07:07:22.330Z,37.43
2022-08-19T07:09:58.444Z,37.67
2022-08-19T07:12:29.632Z,37.86
2022-08-19T07:14:58.919Z,37.21
2022-08-19T07:17:26.719Z,37.77
2022-08-19T07:19:54.765Z,37.44
2022-08-19T07:22:24.375Z,37.61
2022-08-19T07:24:53.645Z,37.44
2022-08-19T07:27:24.450Z,37.85
2022-08-19T07:29:55.917Z,37.61
2022-08-19T07:32:27.395Z,37.65
2022-08-19T07:34:56.368Z,38.11
2022-08-19T07:37:28.363Z,37.20
2022-08-19T07:39:58.207Z,37.14
2022-08-19T07:42:25.978Z,37.48
2022-08-19T07:44:53.236Z,37.83
2022-08-19T07:47:49.019Z,37.89
2022-08-19T07:50:10.704Z,37.81
2022-08-19T07:52:39.687Z,37.77
2022-08-19T07:55:08.142Z,38.28
2022-08-19T07:57:56.085Z,37.57
2022-08-19T08:00:24.728Z,37.62
2022-08-19T08:02:55.111Z,37.65
2022-08-19T08:05:43.985Z,37.88
2022-08-19T08:08:48.347Z,37.70
2022-08-19T08:11:17.656Z,38.26
2022-08-19T08:13:47.649Z,37.96
2022-08-19T08:16:32.316Z,38.10
2022-08-19T08:19:00.401Z,38.08
2022-08-19T08:21:28.579Z,37.91
2022-08-19T08:23:56.836Z,37.44
2022-08-19T08:26:24.523Z,37.19
2022-08-19T08:28:52.265Z,37.91
2022-08-19T08:31:20.250Z,37.37
2022-08-19T08:33:47.964Z,37.80
2022-08-19T08:36:16.001Z,37.38
2022-08-19T08:38:49.198Z,37.87
2022-08-19T08:41:20.925Z,37.61
2022-08-19T08:43:49.717Z,37.19
2022-08-19T08:46:31.133Z,36.14
2022-08-19T08:49:05.329Z,37.02
2022-08-19T08:51:39.261Z,36.65
2022-08-19T08:54:07.849Z,36.45
2022-08-19T08:56:39.806Z,37.17
2022-08-19T08:59:27.456Z,36.32
2022-08-19T09:01:54.832Z,36.49
2022-08-19T09:04:23.940Z,36.21
2022-08-19T09:07:00.312Z,35.99
2022-08-19T09:09:42.034Z,36.04
2022-08-19T09:12:32.487Z,36.19
2022-08-19T09:15:02.625Z,36.21
2022-08-19T09:17:36.255Z,36.30
2022-08-19T09:20:09.572Z,35.73
2022-08-19T09:22:38.459Z,36.33
2022-08-19T09:25:07.307Z,35.88
2022-08-19T09:27:41.792Z,36.37
2022-08-19T09:30:31.347Z,36.01
2022-08-19T09:33:00.253Z,35.43
2022-08-19T09:35:29.769Z,36.06
2022-08-19T09:37:59.447Z,35.84
2022-08-19T09:40:30.315Z,35.57
2022-08-19T09:43:01.799Z,35.80
2022-08-19T09:45:29.817Z,35.78
2022-08-19T09:47:57.483Z,35.54
2022-08-19T09:50:24.992Z,35.89
2022-08-19T09:52:55.141Z,35.89
2022-08-19T09:55:32.044Z,36.18
2022-08-19T09:58:02.938Z,36.32
2022-08-19T10:00:32.061Z,36.23
2022-08-19T10:02:59.441Z,35.99
2022-08-19T10:05:45.662Z,35.86
2022-08-19T10:08:20.838Z,36.14
2022-08-19T10:10:48.429Z,36.48
2022-08-19T10:13:16.720Z,36.64
2022-08-19T10:15:47.190Z,36.94
2022-08-19T10:18:19.337Z,35.92
2022-08-19T10:20:51.826Z,36.72
2022-08-19T10:23:21.409Z,36.71
2022-08-19T10:25:49.429Z,36.87
2022-08-19T10:28:19.524Z,37.03
2022-08-19T10:30:48.655Z,36.62
2022-08-19T10:33:39.894Z,35.78
2022-08-19T10:36:05.625Z,36.43
2022-08-19T10:38:33.203Z,36.18
2022-08-19T10:41:10.830Z,35.58
2022-08-19T10:43:39.361Z,35.74
2022-08-19T10:46:09.450Z,35.34
2022-08-19T10:48:43.053Z,36.03
2022-08-19T10:51:29.643Z,35.99
2022-08-19T10:53:57.721Z,36.40
2022-08-19T10:56:43.339Z,36.01
2022-08-19T10:59:11.236Z,35.84
2022-08-19T11:01:38.624Z,36.36
2022-08-19T11:04:06.047Z,35.95
2022-08-19T11:06:33.407Z,35.42
2022-08-19T11:09:01.186Z,35.44
2022-08-19T11:11:29.500Z,35.35
2022-08-19T11:13:56.917Z,35.31
2022-08-19T11:16:26.449Z,35.58
2022-08-19T11:18:55.257Z,35.28
2022-08-19T11:21:25.494Z,35.47
2022-08-19T11:23:54.095Z,35.08
2022-08-19T11:26:22.172Z,35.51
2022-08-19T11:28:52.252Z,35.78
2022-08-19T11:31:20.413Z,35.66
2022-08-19T11:33:51.755Z,35.33
2022-08-19T11:36:19.594Z,35.76
2022-08-19T11:38:49.287Z,36.49
2022-08-19T11:41:17.981Z,36.20
2022-08-19T11:43:45.509Z,36.18
2022-08-19T11:46:14.297Z,35.80
2022-08-19T11:48:41.846Z,35.95
2022-08-19T11:51:11.742Z,35.84
2022-08-19T11:53:39.405Z,35.89
2022-08-19T11:56:07.434Z,35.91
2022-08-19T11:58:35.318Z,36.54
2022-08-19T12:01:02.788Z,36.10
2022-08-19T12:03:30.578Z,35.90
2022-08-19T12:05:58.060Z,35.70
2022-08-19T12:08:25.514Z,35.25
2022-08-19T12:10:52.828Z,36.02
2022-08-19T12:13:20.604Z,35.96
2022-08-19T12:15:48.708Z,35.62
2022-08-19T12:18:16.037Z,35.66
2022-08-19T12:20:44.097Z,35.77
2022-08-19T12:23:11.674Z,35.70
2022-08-19T12:25:46.336Z,35.75
2022-08-19T12:28:14.487Z,35.29
2022-08-19T12:30:41.833Z,35.09
2022-08-19T12:33:09.285Z,35.64
2022-08-19T12:35:37.387Z,36.01
2022-08-19T12:38:04.675Z,36.18
2022-08-19T12:40:32.156Z,35.84
2022-08-19T12:43:00.235Z,35.89
2022-08-19T12:45:27.540Z,35.88
2022-08-19T12:47:55.599Z,36.16
2022-08-19T12:50:23.032Z,36.22
2022-08-19T12:52:50.595Z,36.26
2022-08-19T12:55:19.757Z,35.61
2022-08-19T12:57:47.097Z,35.86
2022-08-19T13:00:16.728Z,35.59
2022-08-19T13:02:45.915Z,35.75
2022-08-19T13:05:20.845Z,36.26
2022-08-19T13:07:48.459Z,35.88
2022-08-19T13:10:17.176Z,36.32
2022-08-19T13:12:46.047Z,36.37
2022-08-19T13:15:15.076Z,36.62
2022-08-19T13:17:43.205Z,36.35
2022-08-19T13:20:11.487Z,35.90
2022-08-19T13:22:38.941Z,35.82
2022-08-19T13:25:07.200Z,36.12
2022-08-19T13:27:34.768Z,36.02
2022-08-19T13:30:21.455Z,36.09
2022-08-19T13:33:07.238Z,36.18
2022-08-19T13:35:34.520Z,35.95
2022-08-19T13:38:06.363Z,36.18
2022-08-19T13:40:42.097Z,36.12
2022-08-19T13:43:13.694Z,35.90
2022-08-19T13:45:51.762Z,36.00
2022-08-19T13:48:19.787Z,35.84
2022-08-19T13:50:49.108Z,36.10
2022-08-19T13:53:16.774Z,36.15
2022-08-19T13:55:44.371Z,35.52
2022-08-19T13:58:12.001Z,35.82
2022-08-19T14:00:42.144Z,36.44
2022-08-19T14:03:09.715Z,35.93
2022-08-19T14:05:37.703Z,36.22
2022-08-19T14:08:05.223Z,36.71
2022-08-19T14:10:33.085Z,36.57
2022-08-19T14:13:02.613Z,36.25
2022-08-19T14:15:30.312Z,36.21
2022-08-19T14:17:58.085Z,36.67
2022-08-19T14:20:26.313Z,35.88
2022-08-19T14:22:54.690Z,36.09
2022-08-19T14:25:23.650Z,36.12
2022-08-19T14:27:51.014Z,35.55
2022-08-19T14:30:21.717Z,35.94
2022-08-19T14:32:49.126Z,36.30
2022-08-19T14:35:16.527Z,36.06
2022-08-19T14:37:46.182Z,35.90
2022-08-19T14:40:16.075Z,36.00
2022-08-19T14:42:43.977Z,35.89
2022-08-19T14:45:11.983Z,36.21
2022-08-19T14:47:39.873Z,36.57
2022-08-19T14:50:10.587Z,36.32
2022-08-19T14:52:46.361Z,36.69
2022-08-19T14:55:13.599Z,36.14
2022-08-19T14:57:44.403Z,35.84
2022-08-19T15:00:15.299Z,36.30
2022-08-19T15:02:45.154Z,36.15
2022-08-19T15:05:13.704Z,35.99
2022-08-19T15:07:41.986Z,35.72
2022-08-19T15:10:10.627Z,35.96
2022-08-19T15:12:40.784Z,36.79
2022-08-19T15:15:09.372Z,37.09
2022-08-19T15:17:45.349Z,36.65
2022-08-19T15:20:25.313Z,36.87
2022-08-19T15:22:52.603Z,36.40
2022-08-19T15:25:19.967Z,36.37
2022-08-19T15:27:48.356Z,36.33
2022-08-19T15:30:19.959Z,36.53
2022-08-19T15:32:49.180Z,36.24
2022-08-19T15:35:16.674Z,37.17
2022-08-19T15:37:44.651Z,36.52
2022-08-19T15:40:12.665Z,37.07
2022-08-19T15:42:42.491Z,36.95
2022-08-19T15:45:10.376Z,37.29
2022-08-19T15:47:38.207Z,36.83
2022-08-19T15:50:17.787Z,36.85
2022-08-19T15:52:50.237Z,36.43
2022-08-19T15:55:32.783Z,36.58
2022-08-19T15:58:27.885Z,37.15
2022-08-19T16:01:18.840Z,37.60
2022-08-19T16:04:13.933Z,37.59
2022-08-19T16:07:03.521Z,37.66
2022-08-19T16:09:32.738Z,38.04
2022-08-19T16:12:03.774Z,37.75
2022-08-19T16:14:32.749Z,37.61
2022-08-19T16:16:59.992Z,37.98
2022-08-19T16:19:27.606Z,37.86
2022-08-19T16:21:56.118Z,37.76
2022-08-19T16:24:25.636Z,37.92
2022-08-19T16:26:53.200Z,37.80
2022-08-19T16:29:27.715Z,37.59
2022-08-19T16:32:06.761Z,37.55
2022-08-19T16:34:34.559Z,37.60
2022-08-19T16:37:02.133Z,37.83
2022-08-19T16:39:29.925Z,37.54
2022-08-19T16:41:57.253Z,37.62
2022-08-19T16:44:24.819Z,37.59
2022-08-19T16:46:58.460Z,37.49
2022-08-19T16:49:53.683Z,37.56
2022-08-19T16:52:17.975Z,37.28
2022-08-19T16:54:45.336Z,37.78
2022-08-19T16:57:12.954Z,37.82
2022-08-19T16:59:48.158Z,37.67
2022-08-19T17:02:19.865Z,37.85
2022-08-19T17:04:58.165Z,37.96
2022-08-19T17:07:27.204Z,37.94
2022-08-19T17:09:55.170Z,38.10
2022-08-19T17:12:31.731Z,37.78
2022-08-19T17:15:03.561Z,37.82
2022-08-19T17:17:31.430Z,37.79
2022-08-19T17:19:59.288Z,37.49
2022-08-19T17:22:27.395Z,37.63
2022-08-19T17:24:56.127Z,38.22
2022-08-19T17:27:26.154Z,37.93
2022-08-19T17:29:53.576Z,37.78
2022-08-19T17:32:25.209Z,37.69
2022-08-19T17:34:54.370Z,37.72
2022-08-19T17:37:21.888Z,38.01
2022-08-19T17:39:49.375Z,37.54
2022-08-19T17:42:16.893Z,37.59
2022-08-19T17:44:44.880Z,37.60
2022-08-19T17:47:19.611Z,37.74
2022-08-19T17:49:47.057Z,37.79
2022-08-19T17:52:14.392Z,38.01
2022-08-19T17:54:41.849Z,37.83
2022-08-19T17:57:09.680Z,37.91
2022-08-19T17:59:40.116Z,37.57
2022-08-19T18:02:10.063Z,37.75
2022-08-19T18:04:38.532Z,37.77
2022-08-19T18:07:06.604Z,38.16
2022-08-19T18:09:41.221Z,38.02
2022-08-19T18:12:11.584Z,38.35
2022-08-19T18:14:39.379Z,38.40
2022-08-19T18:17:09.691Z,38.29
2022-08-19T18:19:42.188Z,38.01
2022-08-19T18:22:11.357Z,38.22
2022-08-19T18:24:39.513Z,38.08
2022-08-19T18:27:07.250Z,38.15
2022-08-19T18:29:37.275Z,37.94
2022-08-19T18:32:05.483Z,38.04
2022-08-19T18:34:35.672Z,38.15
2022-08-19T18:37:03.064Z,38.53
2022-08-19T18:39:48.888Z,38.04
2022-08-19T18:42:36.172Z,38.01
2022-08-19T18:45:23.168Z,38.52
2022-08-19T18:48:18.451Z,38.00
2022-08-19T18:50:56.580Z,38.03
2022-08-19T18:53:24.199Z,38.30
2022-08-19T18:55:55.252Z,38.29
2022-08-19T18:58:26.365Z,38.19
2022-08-19T19:00:57.060Z,38.22
2022-08-19T19:03:26.131Z,38.35
2022-08-19T19:05:53.620Z,38.33
2022-08-19T19:08:26.830Z,38.22
2022-08-19T19:10:56.153Z,38.07
2022-08-19T19:13:23.413Z,38.17
2022-08-19T19:15:50.823Z,38.18
2022-08-19T19:18:18.098Z,38.25
2022-08-19T19:20:45.527Z,38.19
2022-08-19T19:23:12.821Z,38.17
2022-08-19T19:25:44.845Z,38.19
2022-08-19T19:28:22.417Z,38.16
2022-08-19T19:30:50.053Z,38.12
2022-08-19T19:33:17.939Z,37.95
2022-08-19T19:35:47.290Z,38.03
2022-08-19T19:38:15.020Z,38.42
2022-08-19T19:40:42.252Z,38.25
2022-08-19T19:43:09.837Z,38.39
2022-08-19T19:45:38.187Z,38.22
2022-08-19T19:48:05.820Z,38.07
2022-08-19T19:50:33.052Z,38.02
2022-08-19T19:53:00.509Z,37.97
2022-08-19T19:55:28.975Z,38.19
2022-08-19T19:57:57.885Z,38.09
2022-08-19T20:00:25.449Z,37.87
2022-08-19T20:02:54.764Z,37.68
2022-08-19T20:05:22.722Z,37.84
2022-08-19T20:08:09.071Z,38.13
2022-08-19T20:10:36.544Z,38.06
2022-08-19T20:13:04.427Z,37.98
2022-08-19T20:15:32.353Z,37.97
2022-08-19T20:18:00.932Z,38.01
2022-08-19T20:20:28.410Z,37.94
2022-08-19T20:22:55.857Z,37.92
2022-08-19T20:25:23.723Z,37.97
2022-08-19T20:27:51.050Z,37.77
2022-08-19T20:30:19.899Z,37.84
2022-08-19T20:32:47.946Z,37.80
2022-08-19T20:35:20.728Z,37.90
2022-08-19T20:37:48.659Z,37.70
2022-08-19T20:40:20.093Z,37.77
2022-08-19T20:42:50.799Z,37.83
2022-08-19T20:45:32.267Z,37.73
2022-08-19T20:48:03.130Z,38.07
2022-08-19T20:50:35.150Z,38.00
2022-08-19T20:53:09.883Z,37.84
2022-08-19T20:55:37.156Z,37.68
2022-08-19T20:58:04.589Z,37.82
2022-08-19T21:00:32.081Z,37.69
2022-08-19T21:02:59.381Z,37.55
2022-08-19T21:05:30.441Z,37.70
2022-08-19T21:07:58.708Z,37.56
2022-08-19T21:10:26.479Z,37.68
2022-08-19T21:12:53.837Z,37.61
2022-08-19T21:15:21.300Z,37.65
2022-08-19T21:17:49.056Z,37.68
2022-08-19T21:20:16.415Z,37.72
2022-08-19T21:22:44.178Z,37.48
2022-08-19T21:25:11.752Z,37.62
2022-08-19T21:27:39.220Z,37.34
2022-08-19T21:30:06.836Z,37.52
2022-08-19T21:32:34.180Z,37.53
2022-08-19T21:35:02.298Z,37.58
2022-08-19T21:37:30.271Z,37.38
2022-08-19T21:39:57.576Z,37.29
2022-08-19T21:42:25.009Z,37.36
2022-08-19T21:44:52.283Z,37.54
2022-08-19T21:47:19.700Z,37.41
2022-08-19T21:49:46.915Z,37.26
2022-08-19T21:52:14.319Z,37.43
2022-08-19T21:54:42.198Z,37.33
2022-08-19T21:57:10.146Z,37.36
2022-08-19T21:59:43.357Z,37.52
2022-08-19T22:02:20.264Z,37.29
2022-08-19T22:04:48.289Z,37.19
2022-08-19T22:07:15.870Z,37.05
2022-08-19T22:09:44.112Z,37.10
2022-08-19T22:12:21.189Z,37.11
2022-08-19T22:14:48.823Z,37.22
2022-08-19T22:17:16.533Z,37.10
2022-08-19T22:19:44.619Z,37.04
2022-08-19T22:22:12.159Z,37.18
2022-08-19T22:24:39.557Z,37.07
2022-08-19T22:27:08.504Z,37.10
2022-08-19T22:29:37.507Z,37.03
2022-08-19T22:32:27.095Z,36.83
2022-08-19T22:34:52.539Z,36.91
2022-08-19T22:37:19.830Z,36.95
2022-08-19T22:39:47.438Z,36.99
2022-08-19T22:42:18.010Z,36.88
2022-08-19T22:44:46.068Z,36.97
2022-08-19T22:47:13.360Z,37.02
2022-08-19T22:49:40.885Z,36.93
2022-08-19T22:52:20.619Z,37.00
2022-08-19T22:54:51.917Z,36.66
2022-08-19T22:57:19.907Z,36.79
2022-08-19T22:59:51.288Z,36.76
2022-08-19T23:02:23.351Z,36.66
2022-08-19T23:04:51.185Z,36.81
2022-08-19T23:07:19.433Z,36.61
2022-08-19T23:09:51.380Z,36.84
2022-08-19T23:12:30.699Z,36.72
2022-08-19T23:15:06.021Z,36.77
2022-08-19T23:17:33.742Z,36.75
2022-08-19T23:20:01.269Z,36.59
2022-08-19T23:22:30.692Z,36.68
2022-08-19T23:25:01.796Z,36.68
2022-08-19T23:27:47.620Z,36.57
2022-08-19T23:30:26.813Z,36.40
2022-08-19T23:32:55.341Z,36.44
2022-08-19T23:35:23.054Z,36.41
2022-08-19T23:37:52.177Z,36.45
2022-08-19T23:40:21.613Z,36.37
2022-08-19T23:42:49.956Z,36.45
2022-08-19T23:45:23.642Z,36.56
2022-08-19T23:47:53.414Z,36.52
2022-08-19T23:50:21.370Z,36.34
2022-08-19T23:52:53.447Z,36.22
2022-08-19T23:55:22.245Z,36.33
2022-08-19T23:57:49.608Z,36.14
